sensor_id;sensor_type;location;lat;lon;timestamp;P1;durP1;ratioP1;P2;durP2;ratioP2
22610;SDS011;11472;45.494;12.142;2023-05-10T00:00:00;5.00;;;2.40;;
22610;SDS011;11472;45.494;12.142;2023-05-10T00:01:00;5.00;;;2.40;;
22610;SDS011;11472;45.494;12.142;2023-05-10T00:02:00;5.00;;;2.40;;
22610;SDS011;11472;45.494;12.142;2023-05-10T00:03:00;5.00;;;2.40;;
22610;SDS011;11472;45.494;12.142;2023-05-10T00:04:00;5.00;;;2.40;;
22610;SDS011;11472;45.494;12.142;2023-05-10T00:05:01;5.00;;;2.40;;
22610;SDS011;11472;45.494;12.142;2023-05-10T00:06:00;5.00;;;2.40;;
22610;SDS011;11472;45.494;12.142;2023-05-10T00:07:01;5.10;;;2.30;;
22610;SDS011;11472;45.494;12.142;2023-05-10T00:08:00;5.10;;;2.30;;
22610;SDS011;11472;45.494;12.142;2023-05-10T00:09:00;5.10;;;2.30;;
22610;SDS011;11472;45.494;12.142;2023-05-10T00:10:00;5.10;;;2.30;;
22610;SDS011;11472;45.494;12.142;2023-05-10T00:11:01;5.10;;;2.30;;
22610;SDS011;11472;45.494;12.142;2023-05-10T00:12:00;5.10;;;2.30;;
22610;SDS011;11472;45.494;12.142;2023-05-10T00:13:00;5.10;;;2.30;;
22610;SDS011;11472;45.494;12.142;2023-05-10T00:14:00;5.10;;;2.30;;
22610;SDS011;11472;45.494;12.142;2023-05-10T00:15:03;5.10;;;2.30;;
22610;SDS011;11472;45.494;12.142;2023-05-10T00:16:00;5.10;;;2.30;;
22610;SDS011;11472;45.494;12.142;2023-05-10T00:17:01;5.10;;;2.30;;
22610;SDS011;11472;45.494;12.142;2023-05-10T00:18:00;5.10;;;2.30;;
22610;SDS011;11472;45.494;12.142;2023-05-10T00:19:00;5.10;;;2.30;;
22610;SDS011;11472;45.494;12.142;2023-05-10T00:20:00;5.10;;;2.30;;
22610;SDS011;11472;45.494;12.142;2023-05-10T00:21:00;5.10;;;2.30;;
22610;SDS011;11472;45.494;12.142;2023-05-10T00:22:00;5.40;;;2.60;;
22610;SDS011;11472;45.494;12.142;2023-05-10T00:23:00;5.40;;;2.60;;
22610;SDS011;11472;45.494;12.142;2023-05-10T00:24:00;5.40;;;2.60;;
22610;SDS011;11472;45.494;12.142;2023-05-10T00:25:00;5.40;;;2.60;;
22610;SDS011;11472;45.494;12.142;2023-05-10T00:26:00;5.40;;;2.60;;
22610;SDS011;11472;45.494;12.142;2023-05-10T00:27:00;5.40;;;2.60;;
22610;SDS011;11472;45.494;12.142;2023-05-10T00:28:01;5.40;;;2.60;;
22610;SDS011;11472;45.494;12.142;2023-05-10T00:29:00;5.40;;;2.60;;
22610;SDS011;11472;45.494;12.142;2023-05-10T00:30:00;5.40;;;2.60;;
22610;SDS011;11472;45.494;12.142;2023-05-10T00:31:00;5.40;;;2.60;;
22610;SDS011;11472;45.494;12.142;2023-05-10T00:32:00;5.40;;;2.60;;
22610;SDS011;11472;45.494;12.142;2023-05-10T00:33:00;5.40;;;2.60;;
22610;SDS011;11472;45.494;12.142;2023-05-10T00:34:00;5.40;;;2.60;;
22610;SDS011;11472;45.494;12.142;2023-05-10T00:35:00;5.40;;;2.60;;
22610;SDS011;11472;45.494;12.142;2023-05-10T00:36:00;5.40;;;2.60;;
22610;SDS011;11472;45.494;12.142;2023-05-10T00:37:01;6.20;;;2.30;;
22610;SDS011;11472;45.494;12.142;2023-05-10T00:38:00;6.20;;;2.30;;
22610;SDS011;11472;45.494;12.142;2023-05-10T00:39:00;6.20;;;2.30;;
22610;SDS011;11472;45.494;12.142;2023-05-10T00:40:00;6.20;;;2.30;;
22610;SDS011;11472;45.494;12.142;2023-05-10T00:41:00;6.20;;;2.30;;
22610;SDS011;11472;45.494;12.142;2023-05-10T00:42:00;6.20;;;2.30;;
22610;SDS011;11472;45.494;12.142;2023-05-10T00:43:01;6.20;;;2.30;;
22610;SDS011;11472;45.494;12.142;2023-05-10T00:44:02;6.20;;;2.30;;
22610;SDS011;11472;45.494;12.142;2023-05-10T00:45:00;6.20;;;2.30;;
22610;SDS011;11472;45.494;12.142;2023-05-10T00:46:00;6.20;;;2.30;;
22610;SDS011;11472;45.494;12.142;2023-05-10T00:47:00;6.20;;;2.30;;
22610;SDS011;11472;45.494;12.142;2023-05-10T00:48:02;6.20;;;2.30;;
22610;SDS011;11472;45.494;12.142;2023-05-10T00:49:00;6.20;;;2.30;;
22610;SDS011;11472;45.494;12.142;2023-05-10T00:50:00;6.20;;;2.30;;
22610;SDS011;11472;45.494;12.142;2023-05-10T00:51:01;6.20;;;2.30;;
22610;SDS011;11472;45.494;12.142;2023-05-10T00:52:02;4.60;;;2.60;;
22610;SDS011;11472;45.494;12.142;2023-05-10T00:53:01;4.60;;;2.60;;
22610;SDS011;11472;45.494;12.142;2023-05-10T00:54:00;4.60;;;2.60;;
22610;SDS011;11472;45.494;12.142;2023-05-10T00:55:01;4.60;;;2.60;;
22610;SDS011;11472;45.494;12.142;2023-05-10T00:56:01;4.60;;;2.60;;
22610;SDS011;11472;45.494;12.142;2023-05-10T00:57:01;4.60;;;2.60;;
22610;SDS011;11472;45.494;12.142;2023-05-10T00:58:01;4.60;;;2.60;;
22610;SDS011;11472;45.494;12.142;2023-05-10T00:59:00;4.60;;;2.60;;
22610;SDS011;11472;45.494;12.142;2023-05-10T01:00:01;4.60;;;2.60;;
22610;SDS011;11472;45.494;12.142;2023-05-10T01:01:00;4.60;;;2.60;;
22610;SDS011;11472;45.494;12.142;2023-05-10T01:02:01;4.60;;;2.60;;
22610;SDS011;11472;45.494;12.142;2023-05-10T01:03:01;4.60;;;2.60;;
22610;SDS011;11472;45.494;12.142;2023-05-10T01:04:00;4.60;;;2.60;;
22610;SDS011;11472;45.494;12.142;2023-05-10T01:05:01;4.60;;;2.60;;
22610;SDS011;11472;45.494;12.142;2023-05-10T01:06:00;4.60;;;2.60;;
22610;SDS011;11472;45.494;12.142;2023-05-10T01:07:01;8.20;;;3.60;;
22610;SDS011;11472;45.494;12.142;2023-05-10T01:08:00;8.20;;;3.60;;
22610;SDS011;11472;45.494;12.142;2023-05-10T01:09:00;8.20;;;3.60;;
22610;SDS011;11472;45.494;12.142;2023-05-10T01:10:00;8.20;;;3.60;;
22610;SDS011;11472;45.494;12.142;2023-05-10T01:11:00;8.20;;;3.60;;
22610;SDS011;11472;45.494;12.142;2023-05-10T01:12:01;8.20;;;3.60;;
22610;SDS011;11472;45.494;12.142;2023-05-10T01:13:00;8.20;;;3.60;;
22610;SDS011;11472;45.494;12.142;2023-05-10T01:14:00;8.20;;;3.60;;
22610;SDS011;11472;45.494;12.142;2023-05-10T01:15:01;8.20;;;3.60;;
22610;SDS011;11472;45.494;12.142;2023-05-10T01:16:03;8.20;;;3.60;;
22610;SDS011;11472;45.494;12.142;2023-05-10T01:17:00;8.20;;;3.60;;
22610;SDS011;11472;45.494;12.142;2023-05-10T01:18:00;8.20;;;3.60;;
22610;SDS011;11472;45.494;12.142;2023-05-10T01:19:00;8.20;;;3.60;;
22610;SDS011;11472;45.494;12.142;2023-05-10T01:20:01;8.20;;;3.60;;
22610;SDS011;11472;45.494;12.142;2023-05-10T01:23:15;3.60;;;2.30;;
22610;SDS011;11472;45.494;12.142;2023-05-10T01:34:06;3.60;;;2.30;;
22610;SDS011;11472;45.494;12.142;2023-05-10T01:35:04;3.60;;;2.30;;
22610;SDS011;11472;45.494;12.142;2023-05-10T01:36:08;3.60;;;2.30;;
22610;SDS011;11472;45.494;12.142;2023-05-10T01:37:11;4.60;;;2.20;;
22610;SDS011;11472;45.494;12.142;2023-05-10T01:41:04;4.60;;;2.20;;
22610;SDS011;11472;45.494;12.142;2023-05-10T01:42:10;4.60;;;2.20;;
22610;SDS011;11472;45.494;12.142;2023-05-10T01:43:02;4.60;;;2.20;;
22610;SDS011;11472;45.494;12.142;2023-05-10T01:44:18;4.60;;;2.20;;
22610;SDS011;11472;45.494;12.142;2023-05-10T01:46:02;4.60;;;2.20;;
22610;SDS011;11472;45.494;12.142;2023-05-10T01:48:11;4.60;;;2.20;;
22610;SDS011;11472;45.494;12.142;2023-05-10T01:49:01;4.60;;;2.20;;
22610;SDS011;11472;45.494;12.142;2023-05-10T01:50:03;4.60;;;2.20;;
22610;SDS011;11472;45.494;12.142;2023-05-10T01:51:00;4.60;;;2.20;;
22610;SDS011;11472;45.494;12.142;2023-05-10T01:52:10;3.90;;;2.60;;
22610;SDS011;11472;45.494;12.142;2023-05-10T01:53:01;3.90;;;2.60;;
22610;SDS011;11472;45.494;12.142;2023-05-10T01:54:02;3.90;;;2.60;;
22610;SDS011;11472;45.494;12.142;2023-05-10T01:55:02;3.90;;;2.60;;
22610;SDS011;11472;45.494;12.142;2023-05-10T01:56:00;3.90;;;2.60;;
22610;SDS011;11472;45.494;12.142;2023-05-10T01:57:05;3.90;;;2.60;;
22610;SDS011;11472;45.494;12.142;2023-05-10T01:58:05;3.90;;;2.60;;
22610;SDS011;11472;45.494;12.142;2023-05-10T01:59:01;3.90;;;2.60;;
22610;SDS011;11472;45.494;12.142;2023-05-10T02:00:02;3.90;;;2.60;;
22610;SDS011;11472;45.494;12.142;2023-05-10T02:01:03;3.90;;;2.60;;
22610;SDS011;11472;45.494;12.142;2023-05-10T02:02:00;3.90;;;2.60;;
22610;SDS011;11472;45.494;12.142;2023-05-10T02:03:04;3.90;;;2.60;;
22610;SDS011;11472;45.494;12.142;2023-05-10T02:04:00;3.90;;;2.60;;
22610;SDS011;11472;45.494;12.142;2023-05-10T02:05:00;3.90;;;2.60;;
22610;SDS011;11472;45.494;12.142;2023-05-10T02:06:00;3.90;;;2.60;;
22610;SDS011;11472;45.494;12.142;2023-05-10T02:07:00;6.00;;;3.80;;
22610;SDS011;11472;45.494;12.142;2023-05-10T02:08:01;6.00;;;3.80;;
22610;SDS011;11472;45.494;12.142;2023-05-10T02:09:01;6.00;;;3.80;;
22610;SDS011;11472;45.494;12.142;2023-05-10T02:10:01;6.00;;;3.80;;
22610;SDS011;11472;45.494;12.142;2023-05-10T02:11:00;6.00;;;3.80;;
22610;SDS011;11472;45.494;12.142;2023-05-10T02:12:02;6.00;;;3.80;;
22610;SDS011;11472;45.494;12.142;2023-05-10T02:13:00;6.00;;;3.80;;
22610;SDS011;11472;45.494;12.142;2023-05-10T02:14:00;6.00;;;3.80;;
22610;SDS011;11472;45.494;12.142;2023-05-10T02:15:01;6.00;;;3.80;;
22610;SDS011;11472;45.494;12.142;2023-05-10T02:16:01;6.00;;;3.80;;
22610;SDS011;11472;45.494;12.142;2023-05-10T02:17:01;6.00;;;3.80;;
22610;SDS011;11472;45.494;12.142;2023-05-10T02:18:00;6.00;;;3.80;;
22610;SDS011;11472;45.494;12.142;2023-05-10T02:19:01;6.00;;;3.80;;
22610;SDS011;11472;45.494;12.142;2023-05-10T02:20:01;6.00;;;3.80;;
22610;SDS011;11472;45.494;12.142;2023-05-10T02:21:01;6.00;;;3.80;;
22610;SDS011;11472;45.494;12.142;2023-05-10T02:22:00;5.50;;;3.40;;
22610;SDS011;11472;45.494;12.142;2023-05-10T02:23:00;5.50;;;3.40;;
22610;SDS011;11472;45.494;12.142;2023-05-10T02:24:01;5.50;;;3.40;;
22610;SDS011;11472;45.494;12.142;2023-05-10T02:25:00;5.50;;;3.40;;
22610;SDS011;11472;45.494;12.142;2023-05-10T02:26:00;5.50;;;3.40;;
22610;SDS011;11472;45.494;12.142;2023-05-10T02:27:00;5.50;;;3.40;;
22610;SDS011;11472;45.494;12.142;2023-05-10T02:28:03;5.50;;;3.40;;
22610;SDS011;11472;45.494;12.142;2023-05-10T02:29:03;5.50;;;3.40;;
22610;SDS011;11472;45.494;12.142;2023-05-10T02:30:00;5.50;;;3.40;;
22610;SDS011;11472;45.494;12.142;2023-05-10T02:31:01;5.50;;;3.40;;
22610;SDS011;11472;45.494;12.142;2023-05-10T02:32:00;5.50;;;3.40;;
22610;SDS011;11472;45.494;12.142;2023-05-10T02:33:01;5.50;;;3.40;;
22610;SDS011;11472;45.494;12.142;2023-05-10T02:34:01;5.50;;;3.40;;
22610;SDS011;11472;45.494;12.142;2023-05-10T02:35:01;5.50;;;3.40;;
22610;SDS011;11472;45.494;12.142;2023-05-10T02:36:01;5.50;;;3.40;;
22610;SDS011;11472;45.494;12.142;2023-05-10T02:37:00;5.80;;;2.90;;
22610;SDS011;11472;45.494;12.142;2023-05-10T02:38:00;5.80;;;2.90;;
22610;SDS011;11472;45.494;12.142;2023-05-10T02:39:00;5.80;;;2.90;;
22610;SDS011;11472;45.494;12.142;2023-05-10T02:40:00;5.80;;;2.90;;
22610;SDS011;11472;45.494;12.142;2023-05-10T02:41:01;5.80;;;2.90;;
22610;SDS011;11472;45.494;12.142;2023-05-10T02:42:01;5.80;;;2.90;;
22610;SDS011;11472;45.494;12.142;2023-05-10T02:43:01;5.80;;;2.90;;
22610;SDS011;11472;45.494;12.142;2023-05-10T02:44:02;5.80;;;2.90;;
22610;SDS011;11472;45.494;12.142;2023-05-10T02:45:02;5.80;;;2.90;;
22610;SDS011;11472;45.494;12.142;2023-05-10T02:46:00;5.80;;;2.90;;
22610;SDS011;11472;45.494;12.142;2023-05-10T02:47:00;5.80;;;2.90;;
22610;SDS011;11472;45.494;12.142;2023-05-10T02:48:01;5.80;;;2.90;;
22610;SDS011;11472;45.494;12.142;2023-05-10T02:49:00;5.80;;;2.90;;
22610;SDS011;11472;45.494;12.142;2023-05-10T02:50:00;5.80;;;2.90;;
22610;SDS011;11472;45.494;12.142;2023-05-10T02:51:03;5.80;;;2.90;;
22610;SDS011;11472;45.494;12.142;2023-05-10T02:52:04;4.40;;;3.00;;
22610;SDS011;11472;45.494;12.142;2023-05-10T02:53:06;4.40;;;3.00;;
22610;SDS011;11472;45.494;12.142;2023-05-10T02:54:03;4.40;;;3.00;;
22610;SDS011;11472;45.494;12.142;2023-05-10T02:55:01;4.40;;;3.00;;
22610;SDS011;11472;45.494;12.142;2023-05-10T02:56:01;4.40;;;3.00;;
22610;SDS011;11472;45.494;12.142;2023-05-10T02:57:02;4.40;;;3.00;;
22610;SDS011;11472;45.494;12.142;2023-05-10T02:58:01;4.40;;;3.00;;
22610;SDS011;11472;45.494;12.142;2023-05-10T02:59:00;4.40;;;3.00;;
22610;SDS011;11472;45.494;12.142;2023-05-10T03:00:01;4.40;;;3.00;;
22610;SDS011;11472;45.494;12.142;2023-05-10T03:01:00;4.40;;;3.00;;
22610;SDS011;11472;45.494;12.142;2023-05-10T03:02:00;4.40;;;3.00;;
22610;SDS011;11472;45.494;12.142;2023-05-10T03:03:01;4.40;;;3.00;;
22610;SDS011;11472;45.494;12.142;2023-05-10T03:04:00;4.40;;;3.00;;
22610;SDS011;11472;45.494;12.142;2023-05-10T03:05:01;4.40;;;3.00;;
22610;SDS011;11472;45.494;12.142;2023-05-10T03:06:00;4.40;;;3.00;;
22610;SDS011;11472;45.494;12.142;2023-05-10T03:07:01;4.40;;;3.00;;
22610;SDS011;11472;45.494;12.142;2023-05-10T03:08:03;5.90;;;2.80;;
22610;SDS011;11472;45.494;12.142;2023-05-10T03:09:01;5.90;;;2.80;;
22610;SDS011;11472;45.494;12.142;2023-05-10T03:10:00;5.90;;;2.80;;
22610;SDS011;11472;45.494;12.142;2023-05-10T03:14:07;5.90;;;2.80;;
22610;SDS011;11472;45.494;12.142;2023-05-10T03:15:11;5.90;;;2.80;;
22610;SDS011;11472;45.494;12.142;2023-05-10T03:16:08;5.90;;;2.80;;
22610;SDS011;11472;45.494;12.142;2023-05-10T03:17:11;5.90;;;2.80;;
22610;SDS011;11472;45.494;12.142;2023-05-10T03:19:11;5.90;;;2.80;;
22610;SDS011;11472;45.494;12.142;2023-05-10T03:20:06;5.90;;;2.80;;
22610;SDS011;11472;45.494;12.142;2023-05-10T03:21:07;5.90;;;2.80;;
22610;SDS011;11472;45.494;12.142;2023-05-10T03:22:10;3.80;;;2.70;;
22610;SDS011;11472;45.494;12.142;2023-05-10T03:23:09;3.80;;;2.70;;
22610;SDS011;11472;45.494;12.142;2023-05-10T03:24:05;3.80;;;2.70;;
22610;SDS011;11472;45.494;12.142;2023-05-10T03:25:01;3.80;;;2.70;;
22610;SDS011;11472;45.494;12.142;2023-05-10T03:26:00;3.80;;;2.70;;
22610;SDS011;11472;45.494;12.142;2023-05-10T03:27:02;3.80;;;2.70;;
22610;SDS011;11472;45.494;12.142;2023-05-10T03:28:01;3.80;;;2.70;;
22610;SDS011;11472;45.494;12.142;2023-05-10T03:29:00;3.80;;;2.70;;
22610;SDS011;11472;45.494;12.142;2023-05-10T03:30:01;3.80;;;2.70;;
22610;SDS011;11472;45.494;12.142;2023-05-10T03:31:01;3.80;;;2.70;;
22610;SDS011;11472;45.494;12.142;2023-05-10T03:32:00;3.80;;;2.70;;
22610;SDS011;11472;45.494;12.142;2023-05-10T03:33:08;3.80;;;2.70;;
22610;SDS011;11472;45.494;12.142;2023-05-10T03:34:01;3.80;;;2.70;;
22610;SDS011;11472;45.494;12.142;2023-05-10T03:35:09;3.80;;;2.70;;
22610;SDS011;11472;45.494;12.142;2023-05-10T03:36:00;3.80;;;2.70;;
22610;SDS011;11472;45.494;12.142;2023-05-10T03:37:00;3.80;;;2.70;;
22610;SDS011;11472;45.494;12.142;2023-05-10T03:38:00;5.10;;;3.30;;
22610;SDS011;11472;45.494;12.142;2023-05-10T03:39:00;5.10;;;3.30;;
22610;SDS011;11472;45.494;12.142;2023-05-10T03:40:01;5.10;;;3.30;;
22610;SDS011;11472;45.494;12.142;2023-05-10T03:41:00;5.10;;;3.30;;
22610;SDS011;11472;45.494;12.142;2023-05-10T03:42:00;5.10;;;3.30;;
22610;SDS011;11472;45.494;12.142;2023-05-10T03:43:00;5.10;;;3.30;;
22610;SDS011;11472;45.494;12.142;2023-05-10T03:44:00;5.10;;;3.30;;
22610;SDS011;11472;45.494;12.142;2023-05-10T03:45:00;5.10;;;3.30;;
22610;SDS011;11472;45.494;12.142;2023-05-10T03:46:02;5.10;;;3.30;;
22610;SDS011;11472;45.494;12.142;2023-05-10T03:47:00;5.10;;;3.30;;
22610;SDS011;11472;45.494;12.142;2023-05-10T03:48:01;5.10;;;3.30;;
22610;SDS011;11472;45.494;12.142;2023-05-10T03:49:00;5.10;;;3.30;;
22610;SDS011;11472;45.494;12.142;2023-05-10T03:50:00;5.10;;;3.30;;
22610;SDS011;11472;45.494;12.142;2023-05-10T03:51:00;5.10;;;3.30;;
22610;SDS011;11472;45.494;12.142;2023-05-10T03:52:01;5.10;;;3.30;;
22610;SDS011;11472;45.494;12.142;2023-05-10T03:53:01;5.30;;;3.20;;
22610;SDS011;11472;45.494;12.142;2023-05-10T03:54:00;5.30;;;3.20;;
22610;SDS011;11472;45.494;12.142;2023-05-10T03:55:02;5.30;;;3.20;;
22610;SDS011;11472;45.494;12.142;2023-05-10T03:56:00;5.30;;;3.20;;
22610;SDS011;11472;45.494;12.142;2023-05-10T03:57:00;5.30;;;3.20;;
22610;SDS011;11472;45.494;12.142;2023-05-10T03:58:00;5.30;;;3.20;;
22610;SDS011;11472;45.494;12.142;2023-05-10T03:59:00;5.30;;;3.20;;
22610;SDS011;11472;45.494;12.142;2023-05-10T04:00:01;5.30;;;3.20;;
22610;SDS011;11472;45.494;12.142;2023-05-10T04:01:00;5.30;;;3.20;;
22610;SDS011;11472;45.494;12.142;2023-05-10T04:02:00;5.30;;;3.20;;
22610;SDS011;11472;45.494;12.142;2023-05-10T04:03:00;5.30;;;3.20;;
22610;SDS011;11472;45.494;12.142;2023-05-10T04:04:00;5.30;;;3.20;;
22610;SDS011;11472;45.494;12.142;2023-05-10T04:05:01;5.30;;;3.20;;
22610;SDS011;11472;45.494;12.142;2023-05-10T04:06:01;5.30;;;3.20;;
22610;SDS011;11472;45.494;12.142;2023-05-10T04:07:00;5.30;;;3.20;;
22610;SDS011;11472;45.494;12.142;2023-05-10T04:08:00;5.20;;;3.00;;
22610;SDS011;11472;45.494;12.142;2023-05-10T04:09:03;5.20;;;3.00;;
22610;SDS011;11472;45.494;12.142;2023-05-10T04:10:01;5.20;;;3.00;;
22610;SDS011;11472;45.494;12.142;2023-05-10T04:11:08;5.20;;;3.00;;
22610;SDS011;11472;45.494;12.142;2023-05-10T04:12:02;5.20;;;3.00;;
22610;SDS011;11472;45.494;12.142;2023-05-10T04:13:01;5.20;;;3.00;;
22610;SDS011;11472;45.494;12.142;2023-05-10T04:14:00;5.20;;;3.00;;
22610;SDS011;11472;45.494;12.142;2023-05-10T04:15:01;5.20;;;3.00;;
22610;SDS011;11472;45.494;12.142;2023-05-10T04:16:01;5.20;;;3.00;;
22610;SDS011;11472;45.494;12.142;2023-05-10T04:17:00;5.20;;;3.00;;
22610;SDS011;11472;45.494;12.142;2023-05-10T04:18:00;5.20;;;3.00;;
22610;SDS011;11472;45.494;12.142;2023-05-10T04:19:00;5.20;;;3.00;;
22610;SDS011;11472;45.494;12.142;2023-05-10T04:20:00;5.20;;;3.00;;
22610;SDS011;11472;45.494;12.142;2023-05-10T04:21:00;5.20;;;3.00;;
22610;SDS011;11472;45.494;12.142;2023-05-10T04:22:01;5.20;;;3.00;;
22610;SDS011;11472;45.494;12.142;2023-05-10T04:23:00;4.90;;;3.20;;
22610;SDS011;11472;45.494;12.142;2023-05-10T04:24:00;4.90;;;3.20;;
22610;SDS011;11472;45.494;12.142;2023-05-10T04:25:00;4.90;;;3.20;;
22610;SDS011;11472;45.494;12.142;2023-05-10T04:26:01;4.90;;;3.20;;
22610;SDS011;11472;45.494;12.142;2023-05-10T04:27:00;4.90;;;3.20;;
22610;SDS011;11472;45.494;12.142;2023-05-10T04:28:00;4.90;;;3.20;;
22610;SDS011;11472;45.494;12.142;2023-05-10T04:29:01;4.90;;;3.20;;
22610;SDS011;11472;45.494;12.142;2023-05-10T04:30:00;4.90;;;3.20;;
22610;SDS011;11472;45.494;12.142;2023-05-10T04:31:03;4.90;;;3.20;;
22610;SDS011;11472;45.494;12.142;2023-05-10T04:32:00;4.90;;;3.20;;
22610;SDS011;11472;45.494;12.142;2023-05-10T04:33:01;4.90;;;3.20;;
22610;SDS011;11472;45.494;12.142;2023-05-10T04:34:00;4.90;;;3.20;;
22610;SDS011;11472;45.494;12.142;2023-05-10T04:35:03;4.90;;;3.20;;
22610;SDS011;11472;45.494;12.142;2023-05-10T04:36:00;4.90;;;3.20;;
22610;SDS011;11472;45.494;12.142;2023-05-10T04:37:00;4.90;;;3.20;;
22610;SDS011;11472;45.494;12.142;2023-05-10T04:38:00;5.80;;;3.00;;
22610;SDS011;11472;45.494;12.142;2023-05-10T04:39:01;5.80;;;3.00;;
22610;SDS011;11472;45.494;12.142;2023-05-10T04:40:00;5.80;;;3.00;;
22610;SDS011;11472;45.494;12.142;2023-05-10T04:41:05;5.80;;;3.00;;
22610;SDS011;11472;45.494;12.142;2023-05-10T04:42:02;5.80;;;3.00;;
22610;SDS011;11472;45.494;12.142;2023-05-10T04:43:00;5.80;;;3.00;;
22610;SDS011;11472;45.494;12.142;2023-05-10T04:44:00;5.80;;;3.00;;
22610;SDS011;11472;45.494;12.142;2023-05-10T04:45:01;5.80;;;3.00;;
22610;SDS011;11472;45.494;12.142;2023-05-10T04:46:00;5.80;;;3.00;;
22610;SDS011;11472;45.494;12.142;2023-05-10T04:47:02;5.80;;;3.00;;
22610;SDS011;11472;45.494;12.142;2023-05-10T04:48:00;5.80;;;3.00;;
22610;SDS011;11472;45.494;12.142;2023-05-10T04:49:01;5.80;;;3.00;;
22610;SDS011;11472;45.494;12.142;2023-05-10T04:50:00;5.80;;;3.00;;
22610;SDS011;11472;45.494;12.142;2023-05-10T04:51:01;5.80;;;3.00;;
22610;SDS011;11472;45.494;12.142;2023-05-10T04:52:00;5.80;;;3.00;;
22610;SDS011;11472;45.494;12.142;2023-05-10T04:53:00;5.20;;;3.20;;
22610;SDS011;11472;45.494;12.142;2023-05-10T04:54:03;5.20;;;3.20;;
22610;SDS011;11472;45.494;12.142;2023-05-10T04:55:01;5.20;;;3.20;;
22610;SDS011;11472;45.494;12.142;2023-05-10T04:56:00;5.20;;;3.20;;
22610;SDS011;11472;45.494;12.142;2023-05-10T04:57:00;5.20;;;3.20;;
22610;SDS011;11472;45.494;12.142;2023-05-10T04:58:00;5.20;;;3.20;;
22610;SDS011;11472;45.494;12.142;2023-05-10T04:59:00;5.20;;;3.20;;
22610;SDS011;11472;45.494;12.142;2023-05-10T05:00:00;5.20;;;3.20;;
22610;SDS011;11472;45.494;12.142;2023-05-10T05:01:08;5.20;;;3.20;;
22610;SDS011;11472;45.494;12.142;2023-05-10T05:02:01;5.20;;;3.20;;
22610;SDS011;11472;45.494;12.142;2023-05-10T05:03:00;5.20;;;3.20;;
22610;SDS011;11472;45.494;12.142;2023-05-10T05:04:01;5.20;;;3.20;;
22610;SDS011;11472;45.494;12.142;2023-05-10T05:05:00;5.20;;;3.20;;
22610;SDS011;11472;45.494;12.142;2023-05-10T05:06:00;5.20;;;3.20;;
22610;SDS011;11472;45.494;12.142;2023-05-10T05:07:00;5.20;;;3.20;;
22610;SDS011;11472;45.494;12.142;2023-05-10T05:08:00;5.50;;;3.30;;
22610;SDS011;11472;45.494;12.142;2023-05-10T05:09:00;5.50;;;3.30;;
22610;SDS011;11472;45.494;12.142;2023-05-10T05:10:00;5.50;;;3.30;;
22610;SDS011;11472;45.494;12.142;2023-05-10T05:11:00;5.50;;;3.30;;
22610;SDS011;11472;45.494;12.142;2023-05-10T05:12:00;5.50;;;3.30;;
22610;SDS011;11472;45.494;12.142;2023-05-10T05:13:00;5.50;;;3.30;;
22610;SDS011;11472;45.494;12.142;2023-05-10T05:14:00;5.50;;;3.30;;
22610;SDS011;11472;45.494;12.142;2023-05-10T05:15:01;5.50;;;3.30;;
22610;SDS011;11472;45.494;12.142;2023-05-10T05:16:02;5.50;;;3.30;;
22610;SDS011;11472;45.494;12.142;2023-05-10T05:17:01;5.50;;;3.30;;
22610;SDS011;11472;45.494;12.142;2023-05-10T05:18:00;5.50;;;3.30;;
22610;SDS011;11472;45.494;12.142;2023-05-10T05:19:01;5.50;;;3.30;;
22610;SDS011;11472;45.494;12.142;2023-05-10T05:20:00;5.50;;;3.30;;
22610;SDS011;11472;45.494;12.142;2023-05-10T05:21:01;5.50;;;3.30;;
22610;SDS011;11472;45.494;12.142;2023-05-10T05:22:01;5.50;;;3.30;;
22610;SDS011;11472;45.494;12.142;2023-05-10T05:23:01;5.60;;;3.40;;
22610;SDS011;11472;45.494;12.142;2023-05-10T05:24:00;5.60;;;3.40;;
22610;SDS011;11472;45.494;12.142;2023-05-10T05:25:02;5.60;;;3.40;;
22610;SDS011;11472;45.494;12.142;2023-05-10T05:26:00;5.60;;;3.40;;
22610;SDS011;11472;45.494;12.142;2023-05-10T05:27:00;5.60;;;3.40;;
22610;SDS011;11472;45.494;12.142;2023-05-10T05:28:01;5.60;;;3.40;;
22610;SDS011;11472;45.494;12.142;2023-05-10T05:29:00;5.60;;;3.40;;
22610;SDS011;11472;45.494;12.142;2023-05-10T05:30:00;5.60;;;3.40;;
22610;SDS011;11472;45.494;12.142;2023-05-10T05:31:00;5.60;;;3.40;;
22610;SDS011;11472;45.494;12.142;2023-05-10T05:32:00;5.60;;;3.40;;
22610;SDS011;11472;45.494;12.142;2023-05-10T05:33:00;5.60;;;3.40;;
22610;SDS011;11472;45.494;12.142;2023-05-10T05:34:00;5.60;;;3.40;;
22610;SDS011;11472;45.494;12.142;2023-05-10T05:35:00;5.60;;;3.40;;
22610;SDS011;11472;45.494;12.142;2023-05-10T05:36:02;5.60;;;3.40;;
22610;SDS011;11472;45.494;12.142;2023-05-10T05:37:00;5.60;;;3.40;;
22610;SDS011;11472;45.494;12.142;2023-05-10T05:38:01;4.90;;;3.10;;
22610;SDS011;11472;45.494;12.142;2023-05-10T05:39:00;4.90;;;3.10;;
22610;SDS011;11472;45.494;12.142;2023-05-10T05:40:01;4.90;;;3.10;;
22610;SDS011;11472;45.494;12.142;2023-05-10T05:41:00;4.90;;;3.10;;
22610;SDS011;11472;45.494;12.142;2023-05-10T05:42:00;4.90;;;3.10;;
22610;SDS011;11472;45.494;12.142;2023-05-10T05:43:00;4.90;;;3.10;;
22610;SDS011;11472;45.494;12.142;2023-05-10T05:44:00;4.90;;;3.10;;
22610;SDS011;11472;45.494;12.142;2023-05-10T05:45:00;4.90;;;3.10;;
22610;SDS011;11472;45.494;12.142;2023-05-10T05:46:00;4.90;;;3.10;;
22610;SDS011;11472;45.494;12.142;2023-05-10T05:47:00;4.90;;;3.10;;
22610;SDS011;11472;45.494;12.142;2023-05-10T05:48:00;4.90;;;3.10;;
22610;SDS011;11472;45.494;12.142;2023-05-10T05:49:01;4.90;;;3.10;;
22610;SDS011;11472;45.494;12.142;2023-05-10T05:50:00;4.90;;;3.10;;
22610;SDS011;11472;45.494;12.142;2023-05-10T05:51:00;4.90;;;3.10;;
22610;SDS011;11472;45.494;12.142;2023-05-10T05:52:01;4.90;;;3.10;;
22610;SDS011;11472;45.494;12.142;2023-05-10T05:53:00;5.10;;;3.10;;
22610;SDS011;11472;45.494;12.142;2023-05-10T05:54:00;5.10;;;3.10;;
22610;SDS011;11472;45.494;12.142;2023-05-10T05:55:00;5.10;;;3.10;;
22610;SDS011;11472;45.494;12.142;2023-05-10T05:56:00;5.10;;;3.10;;
22610;SDS011;11472;45.494;12.142;2023-05-10T05:57:01;5.10;;;3.10;;
22610;SDS011;11472;45.494;12.142;2023-05-10T05:58:00;5.10;;;3.10;;
22610;SDS011;11472;45.494;12.142;2023-05-10T05:59:00;5.10;;;3.10;;
22610;SDS011;11472;45.494;12.142;2023-05-10T06:00:00;5.10;;;3.10;;
22610;SDS011;11472;45.494;12.142;2023-05-10T06:01:01;5.10;;;3.10;;
22610;SDS011;11472;45.494;12.142;2023-05-10T06:02:00;5.10;;;3.10;;
22610;SDS011;11472;45.494;12.142;2023-05-10T06:03:00;5.10;;;3.10;;
22610;SDS011;11472;45.494;12.142;2023-05-10T06:04:00;5.10;;;3.10;;
22610;SDS011;11472;45.494;12.142;2023-05-10T06:05:00;5.10;;;3.10;;
22610;SDS011;11472;45.494;12.142;2023-05-10T06:06:00;5.10;;;3.10;;
22610;SDS011;11472;45.494;12.142;2023-05-10T06:07:00;5.10;;;3.10;;
22610;SDS011;11472;45.494;12.142;2023-05-10T06:08:01;5.40;;;3.90;;
22610;SDS011;11472;45.494;12.142;2023-05-10T06:09:00;5.40;;;3.90;;
22610;SDS011;11472;45.494;12.142;2023-05-10T06:10:00;5.40;;;3.90;;
22610;SDS011;11472;45.494;12.142;2023-05-10T06:11:01;5.40;;;3.90;;
22610;SDS011;11472;45.494;12.142;2023-05-10T06:12:01;5.40;;;3.90;;
22610;SDS011;11472;45.494;12.142;2023-05-10T06:13:00;5.40;;;3.90;;
22610;SDS011;11472;45.494;12.142;2023-05-10T06:14:01;5.40;;;3.90;;
22610;SDS011;11472;45.494;12.142;2023-05-10T06:15:00;5.40;;;3.90;;
22610;SDS011;11472;45.494;12.142;2023-05-10T06:16:02;5.40;;;3.90;;